Aérodrome :
LOGIN :

S'inscrire | Disclaimer

   EN    FR    IT 

 










Légende :    VFR   VFR Marginal   IFR   IFR Intensif   IFR Très Intensif
Visi : 
Plafond : 
>= 8 km
>= 3000ft
5 à 8 km
1000 à 3000 ft
1500m à 5 km
500 à 1000 ft
800 à 1500m
200 à 500 ft
< 800m
< 200 ft
Symboles :   Orages  Brouillard  Fortes neiges  Fortes précipitations  Vent > 20 kt
SIGMETs :   Divers  Orages  Givrage  Turbulence  Onde Orograph.  Cendres Volcan.







- Altitude de l'aérodrome : 1568 ft


ETSB - Büchel AB

DERNIER METAR :
  • 222220Z AUTO 12004KT 2700 // ////// M05/M06 Q0999 ///

METARs EXPIRÉS :
  • 222120Z AUTO 14004KT 2500 // ////// M06/M07 Q1000 ///
  • 222045Z 14004KT 4500 -SN BKN006 BKN070 M06/M07 Q1000 YLO FCST CANCEL
  • 222020Z 15005KT 4500 -SN BKN006 BKN070 M06/M07 Q1000 YLO YLO TEMPO AMB
  • 222014Z 15005KT 4500 -SN BKN006 BKN070 M06/M07 Q1000 YLO YLO TEMPO AMB
  • 221920Z 15005KT 7000 BKN006 BKN023 M05/M07 Q1001 YLO YLO BECMG AMB

TAF COR TAF ETSB
Valide du 22 à 21h jusqu'au 23 à 06h UTC


222046Z 2221/2306 16006KT 4000 BR BKN006 BKN030
TEMPO 2221/2306 15006KT 2000 -SN BKN002 OVC010
PROB30 2221/2306 14012KT 0500 SN BKN001 OVC006 CANCEL 2100 BY ETGL
Pas de NOTAMs connus pour ce terrain.



MET'MAP, la Météo Aéronautique d'un coup d'oeil ! - Copyright ORBIFLY Décembre 2007 - Disclaimer

ORBIFLY MET'MAP TEAM :

Programmation & Développement : Alexandra Zaïnal
Conception & Développement : Baudouin d'Aumeries
Co-Programmation & Développement : Marc-Olivier Méhu
Soutien technique & logistique : Manuel Goepfert

Contact : metmap@orbifly.com




SOURCES & CREDITS :

   NOAA